Cedar City, Utah Weather observations

Data are for observation ending at time listed.
 Day   Time    Ave.   Ave.  Ave.  Vector   Max.   Stn.    Total    Solar   Ave.  
  of    of     Air    Rel.  Wind   Wind    Wind   Baro.  Precip.   Rad.    Soil  
Year   Day     Temp.  Hum.  Speed  Dir.    Gust   Pres.                    Temp. 
2015   (MST)    F      %     mph   deg.    mph     mb.     in.     W/m2     F   
------------------------------------------------------------------------------
  63   19:30   27.1    68    1.3   222      2.9   826.9    0.00       0    34.3
  63   19:40   26.9    70    1.2   163      2.2   827.0    0.00       0    34.3
  63   19:50   26.7    70    1.3   150      3.4   827.1    0.00       0    34.4
  63   20:00   26.7    68    1.9   129      4.0   827.2    0.00       0    34.4
  63   20:10   26.4    66    2.0   104      4.0   827.4    0.00       0    34.3
  63   20:20   26.4    65    2.8    96      5.4   827.5    0.00       0    34.3
  63   20:30   26.2    65    3.5    99      5.9   827.5    0.00       0    34.3
  63   20:40   25.9    66    4.4    92      7.2   827.5    0.00       0    34.3
  63   20:50   25.5    66    5.3    92      9.9   827.6    0.00       0    34.3
  63   21:00   25.3    66    6.8    96     12.9   827.6    0.00       0    34.3
  63   21:10   25.1    65    6.8    91     11.2   827.7    0.00       0    34.3
  63   21:20   24.8    65    7.0    89     11.7   827.8    0.00       0    34.2
  63   21:30   24.7    65    5.2    99      9.0   827.9    0.00       0    34.2
  63   21:40   24.6    64    5.1   100      9.3   828.0    0.00       0    34.2
  63   21:50   24.4    64    3.9    99      7.5   828.1    0.00       0    34.2
  63   22:00   24.5    63    5.0   106      8.6   828.2    0.00       0    34.2
  63   22:10   24.2    63    4.6    99      8.0   828.3    0.00       0    34.1
  63   22:20   23.9    63    3.7    95      8.6   828.5    0.00       0    34.1
  63   22:30   23.7    63    5.0    80      8.1   828.6    0.00       0    34.0
  63   22:40   23.4    62    5.8    83      8.5   828.6    0.00       0    34.0
  63   22:50   23.1    62    4.6    92     10.2   828.7    0.00       0    34.0
  63   23:00   22.6    64    2.9   114      6.6   828.8    0.00       0    34.0
  63   23:10   22.4    64    2.5   122      5.3   828.8    0.00       0    33.9
  63   23:20   22.4    63    3.6   107      6.1   828.8    0.00       0    33.9
  63   23:30   22.6    61    3.9    96      6.6   828.8    0.00       0    33.9
  63   23:40   22.6    60    5.7    98     12.6   828.8    0.00       0    33.9
  63   23:50   22.4    60    5.1    99      9.0   828.8    0.00       0    33.8
  64    0:00   22.4    60    4.8    99     10.2   828.8    0.00       0    33.8
  64    0:10   22.2    60    3.3   104      6.0   828.8    0.00       0    33.8
  64    0:20   21.9    62    2.3   142      4.7   828.8    0.00       0    33.8
  64    0:30   21.1    64    2.6   138      5.6   828.8    0.00       0    33.7
  64    0:40   21.9    60    3.6   101      7.8   828.9    0.00       0    33.7
  64    0:50   22.4    58    3.0   109      6.4   829.0    0.00       0    33.7
  64    1:00   20.8    65    2.0   198      3.7   829.1    0.00       0    33.7
  64    1:10   19.5    68    2.0   148      5.3   829.1    0.00       0    33.7
  64    1:20   20.1    64    3.1   110      6.1   829.1    0.00       0    33.6
  64    1:30   21.4    60    3.9   103      6.6   829.2    0.00       0    33.6
  64    1:40   21.6    59    5.7    99      9.6   829.1    0.00       0    33.6
  64    1:50   21.7    57    5.3    98     10.5   829.0    0.00       0    33.6
  64    2:00   21.3    58    3.7   108      7.7   829.0    0.00       0    33.6
  64    2:10   21.4    57    2.8   108      6.5   829.0    0.00       0    33.6
  64    2:20   21.0    59    1.6   124      5.3   829.1    0.00       0    33.5
  64    2:30   20.7    58    2.7   118      5.4   829.1    0.00       0    33.5
  64    2:40   21.7    55    3.6    98      6.9   829.0    0.00       0    33.5
  64    2:50   21.9    54    4.1   100      7.7   829.0    0.00       0    33.4
  64    3:00   21.5    56    1.1   133      3.0   829.1    0.00       0    33.4
  64    3:10   18.7    64    2.0   187      4.7   829.1    0.00       0    33.4
  64    3:20   17.3    68    1.4   181      2.6   829.1    0.00       0    33.4
  64    3:30   16.9    69    1.9   164      3.4   829.1    0.00       0    33.4
  64    3:40   18.8    63    2.5   156      5.1   829.1    0.00       0    33.4
  64    3:50   18.5    64    2.1   170      4.2   829.1    0.00       0    33.4
  64    4:00   17.1    68    1.5   189      3.4   829.2    0.00       0    33.3
  64    4:10   16.4    70    1.4   183      3.5   829.2    0.00       0    33.3
  64    4:20   18.0    64    1.8   154      6.0   829.2    0.00       0    33.3
  64    4:30   16.5    67    3.0   198      4.2   829.3    0.00       0    33.3
  64    4:40   14.8    71    2.2   181      3.4   829.4    0.00       0    33.2
  64    4:50   15.1    73    1.6   152      2.3   829.4    0.00       0    33.2
  64    5:00   16.1    72    1.0   132      2.6   829.4    0.00       0    33.2
  64    5:10   18.0    65    2.0   130      4.5   829.5    0.00       0    33.2
  64    5:20   18.1    63    2.6   192      3.9   829.5    0.00       0    33.2
  64    5:30   15.3    69    1.3   193      3.6   829.5    0.00       0    33.2
  64    5:40   16.6    68    2.3   170      5.6   829.5    0.00       0    33.2
  64    5:50   16.0    68    1.0   185      2.2   829.6    0.00       0    33.1
  64    6:00   15.7    71    1.4   155      3.2   829.6    0.00       0    33.1
  64    6:10   17.6    65    2.0   170      3.2   829.6    0.00       0    33.1
  64    6:20   16.1    68    0.8   149      2.4   829.7    0.00       0    33.1
  64    6:30   16.1    69    1.8   167      2.9   829.7    0.00       0    33.0
  64    6:40   15.0    71    2.8   182      3.9   829.6    0.00       0    33.0
  64    6:50   14.6    74    1.9   153      3.4   829.7    0.00       0    33.0
  64    7:00   17.6    67    2.2   107      4.2   829.9    0.00       3    33.0
  64    7:10   18.7    62    0.5    80      4.6   830.1    0.00       7    33.0
  64    7:20   18.4    62    0.9    22      5.2   830.3    0.00      12    33.0
  64    7:30   16.8    67    0.3   256      1.3   830.5    0.00      30    33.0
  64    7:40   18.3    67    1.2   196      3.4   830.7    0.00      90    33.0
  64    7:50   19.3    64    2.8   170      4.7   830.7    0.00     130    33.1
  64    8:00   21.8    59    2.2   187      3.4   830.6    0.00     164    33.1
  64    8:10   24.3    55    2.4   193      3.6   830.7    0.00     197    33.1
  64    8:20   26.6    50    2.2   191      3.3   830.9    0.00     231    33.1
  64    8:30   29.5    44    1.3   149      2.5   830.9    0.00     264    33.1
  64    8:40   32.8    38    1.0   194      2.6   830.8    0.00     301    33.1
  64    8:50   35.3    33    2.0   205      3.2   830.8    0.00     336    33.1
  64    9:00   36.3    31    1.9   200      3.4   830.7    0.00     370    33.2
  64    9:10   36.4    32    1.6   196      4.1   830.6    0.00     402    33.2
  64    9:20   37.3    30    1.2   208      3.1   830.8    0.00     436    33.2
  64    9:30   34.9    33    2.0   342      7.1   831.2    0.00     467    33.2
  64    9:40   28.4    48    2.4     2      5.7   831.6    0.00     499    33.2
  64    9:50   28.8    46    2.0   302      4.5   831.6    0.00     525    33.2
  64   10:00   28.2    45    2.7   311      4.8   831.8    0.00     553    33.2
  64   10:10   28.1    43    2.5   314      4.4   831.9    0.00     580    33.2
  64   10:20   30.1    39    1.3   301      3.5   831.9    0.00     610    33.2
  64   10:30   31.4    37    2.3   306      4.5   831.9    0.00     633    33.2
  64   10:40   30.4    39    2.9   310      5.1   832.1    0.00     655    33.2
  64   10:50   31.6    38    1.6   290      3.5   832.0    0.00     680    33.2
  64   11:00   32.6    35    1.4   285      3.5   832.0    0.00     701    33.2
  64   11:10   34.4    33    1.8   286      3.9   831.9    0.00     719    33.2
  64   11:20   34.9    32    1.2   284      3.4   831.9    0.00     733    33.2
  64   11:30   36.8    29    1.2   232      3.8   831.8    0.00     750    33.2
  64   11:40   37.3    29    2.3   289      4.6   831.7    0.00     761    33.2
  64   11:50   35.3    31    2.8   308      4.5   831.6    0.00     776    33.2
  64   12:00   35.8    32    2.6   307      4.7   831.5    0.00     787    33.2
  64   12:10   35.0    33    3.4   314      5.8   831.5    0.00     796    33.2
  64   12:20   34.8    33    2.6   306      5.1   831.5    0.00     807    33.2
  64   12:30   35.5    32    2.4   288      4.5   831.5    0.00     808    33.2
  64   12:40   37.3    30    1.4   293      4.2   831.3    0.00     806    33.2
  64   12:50   37.5    30    2.5   296      4.7   831.2    0.00     812    33.2
  64   13:00   37.9    30    2.1   280      4.3   831.3    0.00     809    33.2
  64   13:10   38.8    28    1.9   305      4.2   831.2    0.00     794    33.2
  64   13:20   38.6    27    2.9   294      5.8   831.2    0.00     808    33.3
  64   13:30   38.6    24    2.6   270      5.4   831.0    0.00     795    33.3
  64   13:40   38.9    22    2.7   317      5.0   830.9    0.00     791    33.3
  64   13:50   38.9    24    3.0   288      5.6   830.8    0.00     775    33.3
  64   14:00   39.2    23    2.5   299      5.8   830.9    0.00     768    33.3
  64   14:10   39.0    22    2.9   333      5.8   830.9    0.00     751    33.3
  64   14:20   39.0    24    2.7   332      6.6   830.9    0.00     735    33.4
  64   14:30   39.3    23    2.9   314      6.7   830.9    0.00     719    33.5
  64   14:40   40.3    24    1.7   330      5.0   830.8    0.00     691    33.5
  64   14:50   41.3    25    1.9   251      4.8   830.8    0.00     672    33.5
  64   15:00   41.1    27    2.3   314      4.8   830.8    0.00     649    33.6
  64   15:10   41.2    27    2.3   296      4.5   830.7    0.00     605    33.6
  64   15:20   43.1    25    1.6   234      3.9   830.7    0.00     598    33.7
  64   15:30   42.8    24    2.6   294      4.3   830.6    0.00     582    33.8
  64   15:40   42.4    24    2.5   287      5.6   830.7    0.00     503    33.8
  64   15:50   43.0    24    2.5   274      5.0   830.7    0.00     516    33.8
  64   16:00   43.0    26    2.5   293      4.7   830.8    0.00     448    33.9
  64   16:10   43.2    25    2.4   320      6.1   830.8    0.00     295    34.0
  64   16:20   42.7    24    1.7    15      4.4   830.8    0.00     391    34.0
  64   16:30   42.4    26    2.3    16      4.2   830.6    0.00     219    34.1
  64   16:40   42.9    26    1.1    33      3.8   830.5    0.00      41    34.1
  64   16:50   43.2    26    1.4   310      3.5   830.5    0.00     138    34.2
  64   17:00   43.5    27    1.2   119      3.1   830.5    0.00     287    34.2
  64   17:10   43.3    27    1.5    83      3.9   830.6    0.00     248    34.3
  64   17:20   43.2    28    1.5    97      4.2   830.6    0.00     173    34.4
  64   17:30   42.8    29    1.4    56      3.9   830.5    0.00     182    34.4
  64   17:40   42.6    29    1.5   121      3.0   830.5    0.00     149    34.5
  64   17:50   42.7    29    1.0   106      2.8   830.5    0.00      51    34.5
  64   18:00   42.3    31    1.3    93      2.5   830.5    0.00      65    34.5
  64   18:10   41.3    38    2.8    72      4.8   830.6    0.00      36    34.6
  64   18:20   39.7    42    2.8    80      5.2   830.6    0.00      17    34.6
  64   18:30   39.1    44    3.0    87      4.5   830.6    0.00       8    34.7
  64   18:40   37.8    47    3.2   100      5.6   830.6    0.00       3    34.7
  64   18:50   36.9    50    3.6    97      6.7   830.6    0.00       0    34.8
  64   19:00   36.3    52    4.8    98      8.6   830.6    0.00       0    34.8
  64   19:10   36.0    53    4.6    96      8.1   830.7    0.00       0    34.8
  64   19:20   35.7    53    4.1    92      6.2   830.7    0.00       0    34.8

Return to Cedar City, Utah graphs page.


Western Regional Climate Center,wrcc@dri.edu